sensor_id;sensor_type;location;lat;lon;timestamp;P1;durP1;ratioP1;P2;durP2;ratioP2
21000;SDS011;10658;50.920;12.238;2022-11-02T00:00:54;10.00;;;3.10;;
21000;SDS011;10658;50.920;12.238;2022-11-02T00:04:56;4.70;;;1.73;;
21000;SDS011;10658;50.920;12.238;2022-11-02T00:08:57;3.75;;;1.88;;
21000;SDS011;10658;50.920;12.238;2022-11-02T00:12:58;3.95;;;1.95;;
21000;SDS011;10658;50.920;12.238;2022-11-02T00:17:00;2.20;;;1.65;;
21000;SDS011;10658;50.920;12.238;2022-11-02T00:21:02;2.17;;;1.50;;
21000;SDS011;10658;50.920;12.238;2022-11-02T00:25:03;11.25;;;1.90;;
21000;SDS011;10658;50.920;12.238;2022-11-02T00:29:06;4.85;;;1.70;;
21000;SDS011;10658;50.920;12.238;2022-11-02T00:33:08;4.72;;;1.60;;
21000;SDS011;10658;50.920;12.238;2022-11-02T00:37:09;3.55;;;1.80;;
21000;SDS011;10658;50.920;12.238;2022-11-02T00:41:12;2.28;;;1.92;;
21000;SDS011;10658;50.920;12.238;2022-11-02T00:45:14;3.45;;;1.73;;
21000;SDS011;10658;50.920;12.238;2022-11-02T00:49:15;4.82;;;2.00;;
21000;SDS011;10658;50.920;12.238;2022-11-02T00:53:16;3.83;;;1.85;;
21000;SDS011;10658;50.920;12.238;2022-11-02T00:57:24;2.33;;;1.58;;
21000;SDS011;10658;50.920;12.238;2022-11-02T01:01:27;3.05;;;1.65;;
21000;SDS011;10658;50.920;12.238;2022-11-02T01:05:28;3.35;;;1.55;;
21000;SDS011;10658;50.920;12.238;2022-11-02T01:09:30;4.20;;;1.40;;
21000;SDS011;10658;50.920;12.238;2022-11-02T01:13:32;8.73;;;1.70;;
21000;SDS011;10658;50.920;12.238;2022-11-02T01:17:34;3.33;;;1.98;;
21000;SDS011;10658;50.920;12.238;2022-11-02T01:21:38;4.47;;;2.20;;
21000;SDS011;10658;50.920;12.238;2022-11-02T01:25:43;4.55;;;1.73;;
21000;SDS011;10658;50.920;12.238;2022-11-02T01:29:45;5.10;;;1.55;;
21000;SDS011;10658;50.920;12.238;2022-11-02T01:33:46;5.00;;;1.45;;
21000;SDS011;10658;50.920;12.238;2022-11-02T01:37:48;2.78;;;1.73;;
21000;SDS011;10658;50.920;12.238;2022-11-02T01:41:50;3.28;;;1.63;;
21000;SDS011;10658;50.920;12.238;2022-11-02T01:46:07;6.53;;;1.83;;
21000;SDS011;10658;50.920;12.238;2022-11-02T01:50:17;4.00;;;1.60;;
21000;SDS011;10658;50.920;12.238;2022-11-02T01:54:23;6.13;;;1.65;;
21000;SDS011;10658;50.920;12.238;2022-11-02T01:58:27;3.67;;;1.60;;
21000;SDS011;10658;50.920;12.238;2022-11-02T02:02:28;3.47;;;1.63;;
21000;SDS011;10658;50.920;12.238;2022-11-02T02:06:29;4.55;;;1.80;;
21000;SDS011;10658;50.920;12.238;2022-11-02T02:10:32;5.25;;;1.67;;
21000;SDS011;10658;50.920;12.238;2022-11-02T02:14:38;5.80;;;1.70;;
21000;SDS011;10658;50.920;12.238;2022-11-02T02:18:46;4.72;;;2.33;;
21000;SDS011;10658;50.920;12.238;2022-11-02T02:27:22;2.35;;;1.60;;
21000;SDS011;10658;50.920;12.238;2022-11-02T02:31:47;4.25;;;1.92;;
21000;SDS011;10658;50.920;12.238;2022-11-02T02:44:34;3.72;;;1.42;;
21000;SDS011;10658;50.920;12.238;2022-11-02T02:48:37;5.28;;;2.05;;
21000;SDS011;10658;50.920;12.238;2022-11-02T02:52:43;3.38;;;2.28;;
21000;SDS011;10658;50.920;12.238;2022-11-02T02:56:51;5.93;;;1.65;;
21000;SDS011;10658;50.920;12.238;2022-11-02T03:00:55;3.03;;;1.85;;
21000;SDS011;10658;50.920;12.238;2022-11-02T03:05:00;5.88;;;2.28;;
21000;SDS011;10658;50.920;12.238;2022-11-02T03:13:48;6.63;;;1.42;;
21000;SDS011;10658;50.920;12.238;2022-11-02T03:17:44;3.72;;;1.20;;
21000;SDS011;10658;50.920;12.238;2022-11-02T03:22:03;2.60;;;1.23;;
21000;SDS011;10658;50.920;12.238;2022-11-02T03:26:29;3.10;;;1.63;;
21000;SDS011;10658;50.920;12.238;2022-11-02T03:30:44;4.75;;;1.55;;
21000;SDS011;10658;50.920;12.238;2022-11-02T03:34:57;3.03;;;1.60;;
21000;SDS011;10658;50.920;12.238;2022-11-02T03:39:05;3.63;;;1.30;;
21000;SDS011;10658;50.920;12.238;2022-11-02T03:43:11;4.43;;;1.73;;
21000;SDS011;10658;50.920;12.238;2022-11-02T03:47:16;2.30;;;1.30;;
21000;SDS011;10658;50.920;12.238;2022-11-02T03:51:21;5.40;;;1.65;;
21000;SDS011;10658;50.920;12.238;2022-11-02T03:55:28;3.15;;;1.23;;
21000;SDS011;10658;50.920;12.238;2022-11-02T03:59:33;4.20;;;1.38;;
21000;SDS011;10658;50.920;12.238;2022-11-02T04:03:35;4.85;;;1.77;;
21000;SDS011;10658;50.920;12.238;2022-11-02T04:07:41;4.97;;;2.05;;
21000;SDS011;10658;50.920;12.238;2022-11-02T04:12:04;12.15;;;2.40;;
21000;SDS011;10658;50.920;12.238;2022-11-02T04:16:26;4.72;;;1.60;;
21000;SDS011;10658;50.920;12.238;2022-11-02T04:20:28;2.70;;;1.67;;
21000;SDS011;10658;50.920;12.238;2022-11-02T04:24:30;3.05;;;1.20;;
21000;SDS011;10658;50.920;12.238;2022-11-02T04:28:52;4.65;;;1.35;;
21000;SDS011;10658;50.920;12.238;2022-11-02T04:32:53;3.72;;;1.42;;
21000;SDS011;10658;50.920;12.238;2022-11-02T04:37:23;6.80;;;1.90;;
21000;SDS011;10658;50.920;12.238;2022-11-02T04:41:44;6.50;;;1.63;;
21000;SDS011;10658;50.920;12.238;2022-11-02T04:45:56;4.32;;;1.38;;
21000;SDS011;10658;50.920;12.238;2022-11-02T04:49:58;7.55;;;1.58;;
21000;SDS011;10658;50.920;12.238;2022-11-02T04:54:02;5.90;;;1.50;;
21000;SDS011;10658;50.920;12.238;2022-11-02T04:58:05;6.40;;;1.40;;
21000;SDS011;10658;50.920;12.238;2022-11-02T05:02:06;6.25;;;1.50;;
21000;SDS011;10658;50.920;12.238;2022-11-02T05:06:09;3.75;;;1.63;;
21000;SDS011;10658;50.920;12.238;2022-11-02T05:10:11;4.75;;;1.63;;
21000;SDS011;10658;50.920;12.238;2022-11-02T05:14:14;4.57;;;1.55;;
21000;SDS011;10658;50.920;12.238;2022-11-02T05:18:16;12.02;;;1.90;;
21000;SDS011;10658;50.920;12.238;2022-11-02T05:22:18;3.20;;;1.40;;
21000;SDS011;10658;50.920;12.238;2022-11-02T05:26:21;7.22;;;2.47;;
21000;SDS011;10658;50.920;12.238;2022-11-02T05:30:23;2.45;;;1.30;;
21000;SDS011;10658;50.920;12.238;2022-11-02T05:34:27;6.05;;;1.63;;
21000;SDS011;10658;50.920;12.238;2022-11-02T05:38:28;6.70;;;1.30;;
21000;SDS011;10658;50.920;12.238;2022-11-02T05:42:32;2.72;;;1.40;;
21000;SDS011;10658;50.920;12.238;2022-11-02T05:46:34;4.05;;;1.20;;
21000;SDS011;10658;50.920;12.238;2022-11-02T05:50:36;4.13;;;1.38;;
21000;SDS011;10658;50.920;12.238;2022-11-02T05:54:37;4.38;;;1.30;;
21000;SDS011;10658;50.920;12.238;2022-11-02T05:58:39;3.05;;;1.35;;
21000;SDS011;10658;50.920;12.238;2022-11-02T06:02:40;2.42;;;1.70;;
21000;SDS011;10658;50.920;12.238;2022-11-02T06:06:42;5.80;;;1.30;;
21000;SDS011;10658;50.920;12.238;2022-11-02T06:10:44;3.63;;;1.58;;
21000;SDS011;10658;50.920;12.238;2022-11-02T06:14:45;3.42;;;1.17;;
21000;SDS011;10658;50.920;12.238;2022-11-02T06:18:46;4.07;;;1.63;;
21000;SDS011;10658;50.920;12.238;2022-11-02T06:22:47;6.43;;;1.80;;
21000;SDS011;10658;50.920;12.238;2022-11-02T06:26:49;6.03;;;1.42;;
21000;SDS011;10658;50.920;12.238;2022-11-02T06:30:51;3.05;;;1.50;;
21000;SDS011;10658;50.920;12.238;2022-11-02T06:34:53;8.23;;;1.40;;
21000;SDS011;10658;50.920;12.238;2022-11-02T06:38:54;6.50;;;1.80;;
21000;SDS011;10658;50.920;12.238;2022-11-02T06:42:55;3.63;;;1.50;;
21000;SDS011;10658;50.920;12.238;2022-11-02T06:46:58;10.70;;;2.17;;
21000;SDS011;10658;50.920;12.238;2022-11-02T06:50:59;10.82;;;2.05;;
21000;SDS011;10658;50.920;12.238;2022-11-02T06:59:18;6.63;;;1.40;;
21000;SDS011;10658;50.920;12.238;2022-11-02T07:03:19;5.85;;;1.25;;
21000;SDS011;10658;50.920;12.238;2022-11-02T07:07:23;6.13;;;2.30;;
21000;SDS011;10658;50.920;12.238;2022-11-02T07:11:24;4.28;;;1.30;;
21000;SDS011;10658;50.920;12.238;2022-11-02T07:15:26;5.95;;;1.92;;
21000;SDS011;10658;50.920;12.238;2022-11-02T07:19:27;5.55;;;2.22;;
21000;SDS011;10658;50.920;12.238;2022-11-02T07:23:28;6.95;;;2.83;;
21000;SDS011;10658;50.920;12.238;2022-11-02T07:27:29;5.30;;;2.03;;
21000;SDS011;10658;50.920;12.238;2022-11-02T07:31:30;3.58;;;1.35;;
21000;SDS011;10658;50.920;12.238;2022-11-02T07:35:32;3.65;;;1.63;;
21000;SDS011;10658;50.920;12.238;2022-11-02T07:39:36;4.97;;;1.80;;
21000;SDS011;10658;50.920;12.238;2022-11-02T07:43:37;5.90;;;1.55;;
21000;SDS011;10658;50.920;12.238;2022-11-02T07:47:49;3.63;;;1.70;;
21000;SDS011;10658;50.920;12.238;2022-11-02T07:51:51;8.40;;;2.10;;
21000;SDS011;10658;50.920;12.238;2022-11-02T07:55:53;6.80;;;1.92;;
21000;SDS011;10658;50.920;12.238;2022-11-02T07:59:54;3.28;;;1.33;;
21000;SDS011;10658;50.920;12.238;2022-11-02T08:03:55;4.10;;;1.65;;
21000;SDS011;10658;50.920;12.238;2022-11-02T08:07:57;9.35;;;2.67;;
21000;SDS011;10658;50.920;12.238;2022-11-02T08:12:03;5.18;;;1.83;;
21000;SDS011;10658;50.920;12.238;2022-11-02T08:16:05;8.50;;;2.40;;
21000;SDS011;10658;50.920;12.238;2022-11-02T08:20:06;4.53;;;1.88;;
21000;SDS011;10658;50.920;12.238;2022-11-02T08:24:09;8.52;;;2.00;;
21000;SDS011;10658;50.920;12.238;2022-11-02T08:28:13;6.28;;;3.28;;
21000;SDS011;10658;50.920;12.238;2022-11-02T08:32:17;6.45;;;2.65;;
21000;SDS011;10658;50.920;12.238;2022-11-02T08:36:18;6.82;;;2.92;;
21000;SDS011;10658;50.920;12.238;2022-11-02T08:40:20;7.40;;;2.40;;
21000;SDS011;10658;50.920;12.238;2022-11-02T08:44:21;5.93;;;1.98;;
21000;SDS011;10658;50.920;12.238;2022-11-02T08:48:21;6.50;;;2.55;;
21000;SDS011;10658;50.920;12.238;2022-11-02T08:52:23;7.40;;;2.35;;
21000;SDS011;10658;50.920;12.238;2022-11-02T08:56:24;7.88;;;2.38;;
21000;SDS011;10658;50.920;12.238;2022-11-02T09:00:27;7.28;;;2.00;;
21000;SDS011;10658;50.920;12.238;2022-11-02T09:04:29;5.22;;;2.60;;
21000;SDS011;10658;50.920;12.238;2022-11-02T09:08:31;4.93;;;1.80;;
21000;SDS011;10658;50.920;12.238;2022-11-02T09:12:33;7.30;;;1.63;;
21000;SDS011;10658;50.920;12.238;2022-11-02T09:16:33;8.13;;;1.90;;
21000;SDS011;10658;50.920;12.238;2022-11-02T09:20:35;3.38;;;1.80;;
21000;SDS011;10658;50.920;12.238;2022-11-02T09:24:36;3.97;;;2.00;;
21000;SDS011;10658;50.920;12.238;2022-11-02T09:28:37;6.05;;;1.80;;
21000;SDS011;10658;50.920;12.238;2022-11-02T09:32:39;2.80;;;1.48;;
21000;SDS011;10658;50.920;12.238;2022-11-02T09:36:39;6.85;;;2.45;;
21000;SDS011;10658;50.920;12.238;2022-11-02T09:44:47;4.18;;;1.83;;
21000;SDS011;10658;50.920;12.238;2022-11-02T09:48:57;3.30;;;1.80;;
21000;SDS011;10658;50.920;12.238;2022-11-02T09:53:03;3.13;;;1.50;;
21000;SDS011;10658;50.920;12.238;2022-11-02T09:57:28;8.45;;;1.40;;
21000;SDS011;10658;50.920;12.238;2022-11-02T10:06:13;2.28;;;1.20;;
21000;SDS011;10658;50.920;12.238;2022-11-02T10:10:23;4.60;;;1.73;;
21000;SDS011;10658;50.920;12.238;2022-11-02T10:14:27;4.95;;;1.55;;
21000;SDS011;10658;50.920;12.238;2022-11-02T10:18:38;3.50;;;1.60;;
21000;SDS011;10658;50.920;12.238;2022-11-02T10:22:41;3.90;;;1.30;;
21000;SDS011;10658;50.920;12.238;2022-11-02T10:26:45;2.58;;;1.40;;
21000;SDS011;10658;50.920;12.238;2022-11-02T10:30:48;4.43;;;1.45;;
21000;SDS011;10658;50.920;12.238;2022-11-02T10:34:49;5.90;;;1.30;;
21000;SDS011;10658;50.920;12.238;2022-11-02T10:47:17;3.80;;;1.20;;
21000;SDS011;10658;50.920;12.238;2022-11-02T10:51:27;8.02;;;1.50;;
21000;SDS011;10658;50.920;12.238;2022-11-02T11:04:26;3.92;;;1.50;;
21000;SDS011;10658;50.920;12.238;2022-11-02T11:08:34;5.70;;;1.30;;
21000;SDS011;10658;50.920;12.238;2022-11-02T11:12:37;2.42;;;1.00;;
21000;SDS011;10658;50.920;12.238;2022-11-02T11:16:41;3.42;;;1.10;;
21000;SDS011;10658;50.920;12.238;2022-11-02T11:20:45;3.10;;;1.35;;
21000;SDS011;10658;50.920;12.238;2022-11-02T11:24:47;2.63;;;1.02;;
21000;SDS011;10658;50.920;12.238;2022-11-02T11:28:53;3.97;;;1.30;;
21000;SDS011;10658;50.920;12.238;2022-11-02T11:32:56;8.02;;;1.65;;
21000;SDS011;10658;50.920;12.238;2022-11-02T11:37:06;3.60;;;1.23;;
21000;SDS011;10658;50.920;12.238;2022-11-02T11:41:09;3.38;;;0.95;;
21000;SDS011;10658;50.920;12.238;2022-11-02T11:45:33;3.35;;;1.20;;
21000;SDS011;10658;50.920;12.238;2022-11-02T11:49:34;2.00;;;0.93;;
21000;SDS011;10658;50.920;12.238;2022-11-02T11:53:40;3.58;;;1.40;;
21000;SDS011;10658;50.920;12.238;2022-11-02T12:02:28;3.03;;;0.80;;
21000;SDS011;10658;50.920;12.238;2022-11-02T12:06:44;4.00;;;1.40;;
21000;SDS011;10658;50.920;12.238;2022-11-02T12:45:49;2.88;;;1.05;;
21000;SDS011;10658;50.920;12.238;2022-11-02T12:54:14;3.20;;;1.90;;
21000;SDS011;10658;50.920;12.238;2022-11-02T12:58:21;2.22;;;1.00;;
21000;SDS011;10658;50.920;12.238;2022-11-02T13:02:30;4.53;;;1.08;;
21000;SDS011;10658;50.920;12.238;2022-11-02T13:06:42;4.70;;;0.88;;
21000;SDS011;10658;50.920;12.238;2022-11-02T13:10:50;4.30;;;1.10;;
21000;SDS011;10658;50.920;12.238;2022-11-02T13:14:55;1.45;;;0.75;;
21000;SDS011;10658;50.920;12.238;2022-11-02T13:18:58;4.93;;;1.08;;
21000;SDS011;10658;50.920;12.238;2022-11-02T13:23:05;5.05;;;1.33;;
21000;SDS011;10658;50.920;12.238;2022-11-02T13:27:28;3.83;;;1.15;;
21000;SDS011;10658;50.920;12.238;2022-11-02T13:31:35;2.55;;;1.52;;
21000;SDS011;10658;50.920;12.238;2022-11-02T13:35:39;2.08;;;1.10;;
21000;SDS011;10658;50.920;12.238;2022-11-02T13:39:42;3.38;;;1.23;;
21000;SDS011;10658;50.920;12.238;2022-11-02T13:44:10;3.95;;;1.13;;
21000;SDS011;10658;50.920;12.238;2022-11-02T13:56:41;4.32;;;1.40;;
21000;SDS011;10658;50.920;12.238;2022-11-02T14:00:42;3.38;;;0.95;;
21000;SDS011;10658;50.920;12.238;2022-11-02T14:04:46;3.58;;;1.13;;
21000;SDS011;10658;50.920;12.238;2022-11-02T14:08:49;2.95;;;1.10;;
21000;SDS011;10658;50.920;12.238;2022-11-02T14:12:50;3.65;;;0.90;;
21000;SDS011;10658;50.920;12.238;2022-11-02T14:20:52;2.03;;;1.00;;
21000;SDS011;10658;50.920;12.238;2022-11-02T14:24:54;5.55;;;1.30;;
21000;SDS011;10658;50.920;12.238;2022-11-02T14:29:08;2.22;;;0.88;;
21000;SDS011;10658;50.920;12.238;2022-11-02T14:42:14;2.40;;;1.05;;
21000;SDS011;10658;50.920;12.238;2022-11-02T14:50:34;6.15;;;1.20;;
21000;SDS011;10658;50.920;12.238;2022-11-02T14:54:39;5.32;;;1.20;;
21000;SDS011;10658;50.920;12.238;2022-11-02T14:58:51;2.80;;;0.93;;
21000;SDS011;10658;50.920;12.238;2022-11-02T15:02:56;0.90;;;0.70;;
21000;SDS011;10658;50.920;12.238;2022-11-02T15:06:59;2.22;;;1.00;;
21000;SDS011;10658;50.920;12.238;2022-11-02T15:15:41;1.27;;;1.10;;
21000;SDS011;10658;50.920;12.238;2022-11-02T15:28:03;2.60;;;1.52;;
21000;SDS011;10658;50.920;12.238;2022-11-02T15:32:20;2.83;;;1.42;;
21000;SDS011;10658;50.920;12.238;2022-11-02T15:36:32;1.85;;;1.42;;
21000;SDS011;10658;50.920;12.238;2022-11-02T16:03:25;6.50;;;1.40;;
21000;SDS011;10658;50.920;12.238;2022-11-02T16:07:34;4.82;;;1.30;;
21000;SDS011;10658;50.920;12.238;2022-11-02T16:11:35;2.92;;;1.50;;
21000;SDS011;10658;50.920;12.238;2022-11-02T16:15:38;4.90;;;1.65;;
21000;SDS011;10658;50.920;12.238;2022-11-02T16:19:42;3.60;;;1.27;;
21000;SDS011;10658;50.920;12.238;2022-11-02T16:23:48;2.88;;;1.65;;
21000;SDS011;10658;50.920;12.238;2022-11-02T16:27:53;3.13;;;1.70;;
21000;SDS011;10658;50.920;12.238;2022-11-02T16:31:54;3.80;;;1.48;;
21000;SDS011;10658;50.920;12.238;2022-11-02T16:35:56;3.45;;;1.73;;
21000;SDS011;10658;50.920;12.238;2022-11-02T16:39:58;2.80;;;1.70;;
21000;SDS011;10658;50.920;12.238;2022-11-02T16:44:00;3.58;;;2.45;;
21000;SDS011;10658;50.920;12.238;2022-11-02T16:48:23;3.03;;;1.85;;
21000;SDS011;10658;50.920;12.238;2022-11-02T16:52:30;3.28;;;1.85;;
21000;SDS011;10658;50.920;12.238;2022-11-02T16:56:57;4.93;;;2.00;;
21000;SDS011;10658;50.920;12.238;2022-11-02T17:01:03;11.05;;;2.45;;
21000;SDS011;10658;50.920;12.238;2022-11-02T17:05:12;3.10;;;2.25;;
21000;SDS011;10658;50.920;12.238;2022-11-02T17:09:26;4.50;;;2.47;;
21000;SDS011;10658;50.920;12.238;2022-11-02T17:13:34;2.40;;;1.67;;
21000;SDS011;10658;50.920;12.238;2022-11-02T17:17:38;3.20;;;2.30;;
21000;SDS011;10658;50.920;12.238;2022-11-02T17:21:39;6.25;;;1.77;;
21000;SDS011;10658;50.920;12.238;2022-11-02T17:25:43;6.13;;;1.98;;
21000;SDS011;10658;50.920;12.238;2022-11-02T17:29:44;3.85;;;2.13;;
21000;SDS011;10658;50.920;12.238;2022-11-02T17:33:49;5.65;;;2.00;;
21000;SDS011;10658;50.920;12.238;2022-11-02T17:37:51;4.05;;;1.70;;
21000;SDS011;10658;50.920;12.238;2022-11-02T17:42:02;4.03;;;1.95;;
21000;SDS011;10658;50.920;12.238;2022-11-02T17:46:27;3.97;;;2.00;;
21000;SDS011;10658;50.920;12.238;2022-11-02T17:50:29;3.78;;;1.60;;
21000;SDS011;10658;50.920;12.238;2022-11-02T17:54:31;8.05;;;2.67;;
21000;SDS011;10658;50.920;12.238;2022-11-02T17:58:32;4.05;;;2.30;;
21000;SDS011;10658;50.920;12.238;2022-11-02T18:02:33;8.20;;;2.25;;
21000;SDS011;10658;50.920;12.238;2022-11-02T18:06:34;5.47;;;2.10;;
21000;SDS011;10658;50.920;12.238;2022-11-02T18:10:38;4.32;;;2.30;;
21000;SDS011;10658;50.920;12.238;2022-11-02T18:14:41;6.13;;;3.35;;
21000;SDS011;10658;50.920;12.238;2022-11-02T18:18:42;7.30;;;3.53;;
21000;SDS011;10658;50.920;12.238;2022-11-02T18:22:44;11.85;;;4.55;;
21000;SDS011;10658;50.920;12.238;2022-11-02T18:26:47;8.90;;;4.68;;
21000;SDS011;10658;50.920;12.238;2022-11-02T18:30:49;3.22;;;2.10;;
21000;SDS011;10658;50.920;12.238;2022-11-02T18:34:50;3.85;;;2.00;;
21000;SDS011;10658;50.920;12.238;2022-11-02T18:38:50;6.07;;;2.20;;
21000;SDS011;10658;50.920;12.238;2022-11-02T18:42:52;10.60;;;4.55;;
21000;SDS011;10658;50.920;12.238;2022-11-02T18:46:53;4.55;;;2.08;;
21000;SDS011;10658;50.920;12.238;2022-11-02T18:51:00;4.60;;;2.42;;
21000;SDS011;10658;50.920;12.238;2022-11-02T18:55:03;9.70;;;2.38;;
21000;SDS011;10658;50.920;12.238;2022-11-02T18:59:05;8.15;;;2.63;;
21000;SDS011;10658;50.920;12.238;2022-11-02T19:03:05;3.92;;;1.75;;
21000;SDS011;10658;50.920;12.238;2022-11-02T19:07:06;8.07;;;3.33;;
21000;SDS011;10658;50.920;12.238;2022-11-02T19:11:27;9.27;;;3.80;;
21000;SDS011;10658;50.920;12.238;2022-11-02T19:15:28;5.03;;;3.75;;
21000;SDS011;10658;50.920;12.238;2022-11-02T19:19:30;13.15;;;5.43;;
21000;SDS011;10658;50.920;12.238;2022-11-02T19:23:32;6.65;;;3.42;;
21000;SDS011;10658;50.920;12.238;2022-11-02T19:27:32;6.55;;;3.40;;
21000;SDS011;10658;50.920;12.238;2022-11-02T19:31:34;6.95;;;3.28;;
21000;SDS011;10658;50.920;12.238;2022-11-02T19:35:36;8.27;;;3.47;;
21000;SDS011;10658;50.920;12.238;2022-11-02T19:39:36;11.82;;;2.58;;
21000;SDS011;10658;50.920;12.238;2022-11-02T19:43:38;4.85;;;3.08;;
21000;SDS011;10658;50.920;12.238;2022-11-02T19:47:40;14.55;;;5.35;;
21000;SDS011;10658;50.920;12.238;2022-11-02T19:51:41;9.93;;;4.40;;
21000;SDS011;10658;50.920;12.238;2022-11-02T19:55:49;9.48;;;3.95;;
21000;SDS011;10658;50.920;12.238;2022-11-02T19:59:52;5.85;;;3.38;;
21000;SDS011;10658;50.920;12.238;2022-11-02T20:03:54;11.98;;;4.25;;
21000;SDS011;10658;50.920;12.238;2022-11-02T20:07:55;4.05;;;3.30;;
21000;SDS011;10658;50.920;12.238;2022-11-02T20:11:57;7.90;;;3.53;;
21000;SDS011;10658;50.920;12.238;2022-11-02T20:16:00;14.85;;;4.38;;
21000;SDS011;10658;50.920;12.238;2022-11-02T20:20:02;6.10;;;2.47;;
21000;SDS011;10658;50.920;12.238;2022-11-02T20:24:03;6.05;;;2.40;;
21000;SDS011;10658;50.920;12.238;2022-11-02T20:28:04;5.90;;;2.00;;
21000;SDS011;10658;50.920;12.238;2022-11-02T20:32:05;6.80;;;2.13;;
21000;SDS011;10658;50.920;12.238;2022-11-02T20:36:10;4.15;;;2.42;;
21000;SDS011;10658;50.920;12.238;2022-11-02T20:40:11;7.15;;;2.72;;
21000;SDS011;10658;50.920;12.238;2022-11-02T20:44:12;4.45;;;2.72;;
21000;SDS011;10658;50.920;12.238;2022-11-02T20:48:12;3.13;;;2.08;;
21000;SDS011;10658;50.920;12.238;2022-11-02T20:52:14;6.00;;;1.75;;
21000;SDS011;10658;50.920;12.238;2022-11-02T20:56:18;3.60;;;2.00;;
21000;SDS011;10658;50.920;12.238;2022-11-02T21:00:19;3.92;;;1.90;;
21000;SDS011;10658;50.920;12.238;2022-11-02T21:04:21;6.07;;;2.60;;
21000;SDS011;10658;50.920;12.238;2022-11-02T21:08:23;4.93;;;2.33;;
21000;SDS011;10658;50.920;12.238;2022-11-02T21:12:24;2.53;;;1.65;;
21000;SDS011;10658;50.920;12.238;2022-11-02T21:16:44;3.38;;;1.85;;
21000;SDS011;10658;50.920;12.238;2022-11-02T21:20:45;3.53;;;2.00;;
21000;SDS011;10658;50.920;12.238;2022-11-02T21:24:47;4.78;;;1.83;;
21000;SDS011;10658;50.920;12.238;2022-11-02T21:28:48;6.35;;;3.08;;
21000;SDS011;10658;50.920;12.238;2022-11-02T21:32:49;6.35;;;2.53;;
21000;SDS011;10658;50.920;12.238;2022-11-02T21:36:51;6.15;;;2.17;;
21000;SDS011;10658;50.920;12.238;2022-11-02T21:40:58;2.95;;;2.10;;
21000;SDS011;10658;50.920;12.238;2022-11-02T21:45:00;6.05;;;2.55;;
21000;SDS011;10658;50.920;12.238;2022-11-02T21:49:02;9.02;;;5.40;;
21000;SDS011;10658;50.920;12.238;2022-11-02T21:53:03;9.13;;;5.18;;
21000;SDS011;10658;50.920;12.238;2022-11-02T21:57:06;12.77;;;7.40;;
21000;SDS011;10658;50.920;12.238;2022-11-02T22:01:09;11.20;;;5.90;;
21000;SDS011;10658;50.920;12.238;2022-11-02T22:05:46;6.93;;;3.97;;
21000;SDS011;10658;50.920;12.238;2022-11-02T22:09:55;6.82;;;4.30;;
21000;SDS011;10658;50.920;12.238;2022-11-02T22:13:57;7.55;;;3.33;;
21000;SDS011;10658;50.920;12.238;2022-11-02T22:17:59;7.22;;;3.60;;
21000;SDS011;10658;50.920;12.238;2022-11-02T22:22:00;7.15;;;4.63;;
21000;SDS011;10658;50.920;12.238;2022-11-02T22:26:03;9.27;;;4.10;;
21000;SDS011;10658;50.920;12.238;2022-11-02T22:30:06;8.00;;;4.05;;
21000;SDS011;10658;50.920;12.238;2022-11-02T22:34:09;7.85;;;3.30;;
21000;SDS011;10658;50.920;12.238;2022-11-02T22:38:11;7.53;;;3.58;;
21000;SDS011;10658;50.920;12.238;2022-11-02T22:42:31;7.13;;;3.42;;
21000;SDS011;10658;50.920;12.238;2022-11-02T22:46:32;8.73;;;3.97;;
21000;SDS011;10658;50.920;12.238;2022-11-02T22:50:35;7.18;;;4.32;;
21000;SDS011;10658;50.920;12.238;2022-11-02T22:54:36;6.07;;;4.15;;
21000;SDS011;10658;50.920;12.238;2022-11-02T22:58:38;6.57;;;3.92;;
21000;SDS011;10658;50.920;12.238;2022-11-02T23:02:41;5.20;;;3.45;;
21000;SDS011;10658;50.920;12.238;2022-11-02T23:06:42;6.75;;;3.30;;
21000;SDS011;10658;50.920;12.238;2022-11-02T23:10:43;8.25;;;3.20;;
21000;SDS011;10658;50.920;12.238;2022-11-02T23:15:02;5.20;;;3.20;;
21000;SDS011;10658;50.920;12.238;2022-11-02T23:19:05;5.63;;;3.53;;
21000;SDS011;10658;50.920;12.238;2022-11-02T23:23:25;6.00;;;3.65;;
21000;SDS011;10658;50.920;12.238;2022-11-02T23:27:54;4.20;;;3.42;;
21000;SDS011;10658;50.920;12.238;2022-11-02T23:32:17;7.88;;;3.08;;
21000;SDS011;10658;50.920;12.238;2022-11-02T23:36:27;5.57;;;2.95;;
21000;SDS011;10658;50.920;12.238;2022-11-02T23:40:28;7.82;;;3.05;;
21000;SDS011;10658;50.920;12.238;2022-11-02T23:44:29;4.80;;;3.05;;
21000;SDS011;10658;50.920;12.238;2022-11-02T23:48:30;6.82;;;3.15;;
21000;SDS011;10658;50.920;12.238;2022-11-02T23:52:31;7.22;;;2.20;;
21000;SDS011;10658;50.920;12.238;2022-11-02T23:56:53;7.60;;;3.35;;
